Time;durP1;ratioP1;P1;durP2;ratioP2;P2;SDS_P1;SDS_P2;PMS_P1;PMS_P2;Temp;Humidity;BMP_temperature;BMP_pressure;BME280_temperature;BME280_humidity;BME280_pressure;Samples;Min_cycle;Max_cycle;Signal;HPM_P1;HPM_P2
2023/01/18 00:01:23;;;;;;;35.60;21.80;;;3.30;99.90;;;3.05;77.17;98128.75;5061473;28;20256;-64
2023/01/18 00:03:51;;;;;;;32.33;21.33;;;3.20;99.90;;;3.02;77.08;98121.16;5070581;28;20610;-64
2023/01/18 00:06:20;;;;;;;34.53;21.20;;;3.20;99.90;;;3.00;76.97;98127.97;5071577;28;20639;-66
2023/01/18 00:08:48;;;;;;;31.07;21.33;;;3.20;99.90;;;2.96;77.86;98124.63;5060382;28;20481;-66
2023/01/18 00:11:17;;;;;;;29.67;19.90;;;3.20;99.90;;;2.97;77.11;98118.66;5066769;28;20259;-65
2023/01/18 00:13:46;;;;;;;33.97;20.40;;;3.10;99.90;;;2.96;77.78;98108.53;5065168;28;20661;-66
2023/01/18 00:16:18;;;;;;;31.10;20.80;;;3.10;99.90;;;2.98;78.40;98116.97;5053680;28;20630;-65
2023/01/18 00:18:53;;;;;;;36.20;20.67;;;3.20;99.90;;;2.99;77.88;98113.56;5072780;28;20265;-64
2023/01/18 00:21:22;;;;;;;29.07;19.53;;;3.10;99.90;;;3.02;78.59;98116.06;5093182;28;20744;-65
2023/01/18 00:23:50;;;;;;;29.20;20.13;;;3.20;99.90;;;3.05;77.77;98116.03;5094232;28;20213;-65
2023/01/18 00:26:19;;;;;;;30.97;19.73;;;3.20;99.90;;;3.05;78.13;98116.88;5094256;28;20216;-64
2023/01/18 00:28:48;;;;;;;29.23;19.40;;;3.20;99.90;;;3.07;79.11;98109.22;5092418;28;20208;-65
2023/01/18 00:31:19;;;;;;;32.80;18.77;;;3.20;99.90;;;3.08;78.93;98103.28;5090092;28;20694;-64
2023/01/18 00:33:50;;;;;;;33.50;19.20;;;3.20;99.90;;;3.08;78.17;98100.72;5081484;28;20215;-65
2023/01/18 00:36:19;;;;;;;31.60;19.47;;;3.20;99.90;;;3.09;78.57;98107.50;5092848;28;20222;-64
2023/01/18 00:38:51;;;;;;;28.50;19.17;;;3.20;99.90;;;3.08;78.60;98101.56;5092810;28;20617;-63
2023/01/18 00:41:20;;;;;;;32.10;18.47;;;3.20;99.90;;;3.05;79.28;98103.31;5085701;28;20230;-64
2023/01/18 00:43:48;;;;;;;31.33;19.50;;;3.20;99.90;;;3.04;79.29;98086.38;5081549;28;20216;-64
2023/01/18 00:46:19;;;;;;;30.17;19.47;;;3.20;99.90;;;3.02;78.54;98093.16;5091592;28;20233;-65
2023/01/18 00:48:48;;;;;;;29.60;18.67;;;3.20;99.90;;;3.00;79.07;98087.28;5091794;28;20651;-65
2023/01/18 00:51:21;;;;;;;28.87;18.73;;;3.20;99.90;;;2.99;79.23;98085.59;5093000;28;20201;-63
2023/01/18 00:53:51;;;;;;;27.70;17.00;;;3.20;99.90;;;2.97;78.90;98084.75;5092050;28;20236;-64
2023/01/18 00:56:22;;;;;;;28.83;18.67;;;3.20;99.90;;;2.93;79.30;98081.41;5087604;28;20262;-65
2023/01/18 00:58:50;;;;;;;29.30;18.57;;;3.10;99.90;;;2.90;78.71;98079.75;5091471;28;20209;-65
2023/01/18 01:01:19;;;;;;;29.37;19.07;;;3.10;99.90;;;2.90;78.70;98074.66;5091879;28;20632;-64
2023/01/18 01:06:45;;;;;;;30.57;19.33;;;3.10;99.90;;;2.79;78.66;98073.94;5090888;28;20262;-66
2023/01/18 01:09:17;;;;;;;31.63;18.50;;;3.00;99.90;;;2.71;79.61;98065.56;5043482;28;20235;-64
2023/01/18 01:28:22;;;;;;;31.60;18.73;;;2.80;99.90;;;2.57;80.67;98047.94;4988305;28;20653;-63
2023/01/18 01:30:50;;;;;;;27.97;18.10;;;2.80;99.90;;;2.59;80.12;98047.94;4990453;28;20208;-64
2023/01/18 01:33:19;;;;;;;31.07;19.33;;;2.90;99.90;;;2.56;79.70;98038.63;4983457;28;20218;-64
2023/01/18 01:35:47;;;;;;;31.87;19.93;;;2.80;99.90;;;2.57;80.02;98044.56;4989456;28;20212;-64
2023/01/18 01:38:17;;;;;;;34.80;19.63;;;2.80;99.90;;;2.55;79.98;98047.13;4988711;28;20261;-65
2023/01/18 01:40:55;;;;;;;31.27;19.13;;;2.80;99.90;;;2.54;80.16;98036.97;4990066;28;20212;-64
2023/01/18 01:43:39;;;;;;;32.37;20.30;;;2.80;99.90;;;2.53;80.83;98043.75;4988810;28;20200;-66
2023/01/18 01:46:24;;;;;;;29.00;18.53;;;2.80;99.90;;;2.55;80.98;98043.75;4988092;28;20212;-64
2023/01/18 01:48:59;;;;;;;32.73;20.57;;;2.80;99.90;;;2.54;81.12;98050.53;4988277;28;20239;-65
2023/01/18 01:51:28;;;;;;;33.47;20.30;;;2.80;99.90;;;2.55;80.84;98051.38;4988726;28;20652;-66
2023/01/18 01:54:02;;;;;;;33.23;19.43;;;2.80;99.90;;;2.53;80.30;98048.00;5017363;28;20205;-64
2023/01/18 01:56:32;;;;;;;31.33;19.63;;;2.80;99.90;;;2.52;80.74;98042.06;5022552;28;20256;-64
2023/01/18 01:59:05;;;;;;;37.90;20.37;;;2.80;99.90;;;2.53;80.24;98043.75;4989363;28;20204;-64
2023/01/18 02:01:34;;;;;;;32.87;20.60;;;2.80;99.90;;;2.48;80.18;98042.13;4985970;28;20220;-65
2023/01/18 02:04:04;;;;;;;34.50;19.47;;;2.70;99.90;;;2.45;80.38;98053.16;4988278;28;20576;-65
2023/01/18 02:06:37;;;;;;;33.33;20.23;;;2.70;99.90;;;2.38;80.05;98049.00;4988910;28;20281;-65
2023/01/18 02:09:10;;;;;;;35.20;20.17;;;2.70;99.90;;;2.34;80.83;98057.53;4988198;28;20208;-65
2023/01/18 02:11:39;;;;;;;33.33;21.20;;;2.60;99.90;;;2.28;81.24;98047.41;4986633;28;20269;-65
2023/01/18 02:14:12;;;;;;;34.07;20.50;;;2.60;99.90;;;2.24;80.54;98049.16;4989049;28;20223;-64
2023/01/18 02:17:00;;;;;;;33.10;20.73;;;2.50;99.90;;;2.18;81.18;98062.78;5026652;28;20204;-64
2023/01/18 02:20:02;;;;;;;37.30;20.50;;;2.50;99.90;;;2.16;81.05;98056.00;5078815;28;20862;-64
2023/01/18 02:22:53;;;;;;;32.27;19.50;;;2.50;99.90;;;2.14;81.60;98057.75;5079977;28;20234;-65
2023/01/18 02:26:01;;;;;;;28.70;19.23;;;2.40;99.90;;;2.12;81.29;98049.28;5080660;28;20266;-65
2023/01/18 02:28:34;;;;;;;32.47;19.67;;;2.40;99.90;;;2.13;81.91;98045.88;5081389;28;20586;-64
2023/01/18 02:31:10;;;;;;;32.00;19.40;;;2.40;99.90;;;2.13;81.88;98038.25;5085583;28;20546;-65
2023/01/18 02:33:46;;;;;;;32.87;19.03;;;2.50;99.90;;;2.12;81.86;98057.75;5089433;28;20210;-64
2023/01/18 02:36:26;;;;;;;29.97;18.77;;;2.40;99.90;;;2.13;82.08;98051.78;5090776;28;20196;-62
2023/01/18 02:38:59;;;;;;;30.10;18.77;;;2.50;99.90;;;2.15;81.76;98051.78;5088906;28;20227;-64
2023/01/18 02:47:12;;;;;;;30.37;18.73;;;2.50;99.90;;;2.20;81.80;98052.56;5077743;28;20216;-64
2023/01/18 02:49:41;;;;;;;30.60;19.47;;;2.50;99.90;;;2.22;81.87;98050.03;5090098;28;20684;-65
2023/01/18 02:52:39;;;;;;;27.67;18.57;;;2.50;99.90;;;2.25;81.81;98047.47;5091005;28;20212;-65
2023/01/18 02:55:17;;;;;;;27.10;17.27;;;2.50;99.90;;;2.23;82.06;98039.00;5085999;28;20232;-63
2023/01/18 02:57:46;;;;;;;25.50;17.03;;;2.50;99.90;;;2.26;82.15;98041.53;5089880;28;20200;-63
2023/01/18 03:00:19;;;;;;;25.67;16.70;;;2.60;99.90;;;2.24;81.69;98045.78;5088864;28;20229;-65
2023/01/18 03:02:49;;;;;;;25.63;16.40;;;2.60;99.90;;;2.26;82.59;98039.81;5086260;28;20200;-64
2023/01/18 03:05:20;;;;;;;25.47;16.63;;;2.60;99.90;;;2.27;82.06;98027.94;5088400;28;20207;-63
2023/01/18 03:07:54;;;;;;;26.47;16.00;;;2.60;99.90;;;2.27;82.16;98022.88;5090708;28;20247;-61
2023/01/18 03:10:31;;;;;;;27.47;15.37;;;2.60;99.90;;;2.27;81.95;98021.16;5090391;28;20241;-64
2023/01/18 03:13:05;;;;;;;26.13;16.20;;;2.60;99.90;;;2.27;82.20;98015.25;5088699;28;20276;-64
2023/01/18 03:15:46;;;;;;;26.73;15.33;;;2.60;99.90;;;2.28;82.04;98017.75;5077876;28;20726;-63
2023/01/18 03:18:22;;;;;;;26.87;16.20;;;2.60;99.90;;;2.29;81.51;98013.56;5082171;28;20232;-64
2023/01/18 03:20:54;;;;;;;24.60;15.43;;;2.60;99.90;;;2.29;81.97;98003.38;5090676;28;20265;-61
2023/01/18 03:23:38;;;;;;;23.93;15.20;;;2.50;99.90;;;2.33;81.64;98013.50;5088420;28;20197;-64
2023/01/18 03:26:10;;;;;;;21.90;14.57;;;2.60;99.90;;;2.32;82.22;98004.19;5089271;28;20687;-64
2023/01/18 03:34:32;;;;;;;22.80;14.00;;;2.60;99.90;;;2.36;82.08;97977.88;5086378;28;20205;-64
2023/01/18 03:37:08;;;;;;;23.13;15.33;;;2.60;99.90;;;2.42;81.69;97970.16;5088629;28;20224;-64
2023/01/18 03:39:41;;;;;;;22.23;14.50;;;2.60;99.90;;;2.45;82.07;97968.47;5093904;28;20291;-62
2023/01/18 03:42:15;;;;;;;21.07;13.60;;;2.70;99.90;;;2.45;81.95;97958.28;5094092;28;20220;-66
2023/01/18 03:44:51;;;;;;;24.10;15.43;;;2.70;99.90;;;2.47;82.02;97952.34;5088628;28;20223;-63
2023/01/18 03:47:21;;;;;;;22.30;13.23;;;2.70;99.90;;;2.47;81.15;97952.34;5093714;28;20296;-63
2023/01/18 03:49:49;;;;;;;24.50;15.03;;;2.70;99.90;;;2.46;82.11;97957.41;5090855;28;20669;-64
2023/01/18 03:52:23;;;;;;;24.03;14.07;;;2.70;99.90;;;2.47;81.38;97949.78;5092614;28;20551;-63
2023/01/18 03:55:00;;;;;;;23.47;14.63;;;2.70;99.90;;;2.47;81.26;97941.31;5093790;28;20243;-64
2023/01/18 03:57:37;;;;;;;21.17;13.97;;;2.70;99.90;;;2.47;81.36;97926.06;5094070;28;20257;-63
2023/01/18 04:00:10;;;;;;;23.27;14.83;;;2.70;99.90;;;2.45;81.67;97913.38;5093117;28;20228;-64
2023/01/18 04:02:40;;;;;;;24.47;14.73;;;2.70;99.90;;;2.46;81.36;97915.03;5088411;28;20246;-63
2023/01/18 04:05:10;;;;;;;21.70;14.30;;;2.70;99.90;;;2.50;81.39;97905.69;5093364;28;20204;-64
2023/01/18 04:07:38;;;;;;;21.63;13.33;;;2.70;99.90;;;2.53;81.69;97900.56;5094075;28;20228;-64
2023/01/18 04:10:08;;;;;;;22.80;13.43;;;2.70;99.90;;;2.55;81.61;97883.59;5092319;28;20246;-65
2023/01/18 04:12:37;;;;;;;23.73;13.37;;;2.80;99.90;;;2.57;81.45;97881.84;5090270;28;20621;-62
2023/01/18 04:15:06;;;;;;;21.73;13.67;;;2.80;99.90;;;2.56;81.21;97875.09;5093127;28;20208;-64
2023/01/18 04:17:35;;;;;;;21.73;13.83;;;2.80;99.90;;;2.56;81.14;97878.47;5093433;28;20650;-64
2023/01/18 04:20:06;;;;;;;22.30;13.97;;;2.80;99.90;;;2.54;81.90;97879.34;5091793;28;20328;-65
2023/01/18 04:22:35;;;;;;;22.23;13.67;;;2.80;99.90;;;2.54;81.37;97886.97;5087812;28;20320;-63
2023/01/18 04:25:03;;;;;;;27.17;14.83;;;2.80;99.90;;;2.53;81.96;97883.59;5092891;28;20661;-63
2023/01/18 04:27:32;;;;;;;21.73;14.73;;;2.70;99.90;;;2.52;81.77;97894.63;5093358;28;20224;-65
2023/01/18 04:30:00;;;;;;;23.70;14.83;;;2.80;99.90;;;2.51;82.36;97881.97;5085609;28;20250;-65
2023/01/18 04:32:29;;;;;;;26.90;15.53;;;2.80;99.90;;;2.54;82.29;97881.91;5093703;28;20213;-61
2023/01/18 04:34:57;;;;;;;26.17;14.80;;;2.80;99.90;;;2.56;82.31;97885.28;5074900;28;20204;-64
2023/01/18 04:37:29;;;;;;;26.10;15.47;;;2.80;99.90;;;2.59;82.01;97887.78;5091629;28;20205;-64
2023/01/18 04:39:57;;;;;;;25.47;15.47;;;2.80;99.90;;;2.61;82.13;97886.03;5089710;28;20201;-68
2023/01/18 04:42:26;;;;;;;27.03;16.07;;;2.80;99.90;;;2.62;81.66;97880.09;5091112;28;20250;-64
2023/01/18 04:44:54;;;;;;;27.53;15.80;;;2.80;99.90;;;2.64;82.33;97886.00;5089934;28;20212;-65
2023/01/18 04:47:23;;;;;;;26.93;15.90;;;2.80;99.90;;;2.65;81.82;97890.22;5092185;28;20217;-64
2023/01/18 04:49:51;;;;;;;26.13;15.53;;;2.90;99.90;;;2.68;82.63;97890.16;5091612;28;20212;-63
2023/01/18 04:52:19;;;;;;;27.63;15.27;;;2.90;99.90;;;2.67;81.88;97889.34;5082962;28;20224;-63
2023/01/18 04:54:49;;;;;;;26.10;16.07;;;2.90;99.90;;;2.70;81.97;97891.00;5082310;28;20730;-65
2023/01/18 04:57:18;;;;;;;26.30;15.90;;;2.90;99.90;;;2.70;82.35;97893.53;5077943;28;20201;-66
2023/01/18 04:59:46;;;;;;;27.27;15.13;;;2.90;99.90;;;2.71;82.03;97894.38;5083572;28;20209;-64
2023/01/18 05:02:15;;;;;;;31.03;15.47;;;2.90;99.90;;;2.71;82.07;97894.38;5086420;28;20208;-65
2023/01/18 05:04:43;;;;;;;28.90;15.03;;;3.00;99.90;;;2.72;82.74;97891.81;5089663;28;20208;-63
2023/01/18 05:07:12;;;;;;;27.43;15.27;;;2.90;99.90;;;2.72;81.73;97891.81;5091108;28;20258;-65
2023/01/18 05:09:40;;;;;;;27.53;15.60;;;2.90;99.90;;;2.72;81.75;97896.06;5090368;28;20209;-65
2023/01/18 05:12:11;;;;;;;25.87;15.97;;;3.00;99.90;;;2.74;82.29;97894.34;5084516;28;20239;-65
2023/01/18 05:14:39;;;;;;;25.60;14.30;;;3.00;99.90;;;2.75;82.05;97896.84;5085678;28;20249;-64
2023/01/18 05:17:08;;;;;;;27.50;15.40;;;3.00;99.90;;;2.76;82.06;97897.69;5086952;28;20247;-64
2023/01/18 05:19:37;;;;;;;27.33;16.40;;;3.00;99.90;;;2.76;82.15;97893.47;5089645;28;20301;-67
2023/01/18 05:22:06;;;;;;;31.13;16.70;;;3.00;99.90;;;2.76;82.37;97882.44;5087768;28;20205;-64
2023/01/18 05:24:35;;;;;;;28.33;15.60;;;3.00;99.90;;;2.78;82.44;97891.72;5089040;28;20702;-66
2023/01/18 05:27:04;;;;;;;26.20;15.77;;;3.00;99.90;;;2.78;81.63;97884.09;5089821;28;20236;-63
2023/01/18 05:29:33;;;;;;;26.17;15.47;;;3.00;99.90;;;2.79;82.50;97885.75;5080178;28;20205;-62
2023/01/18 05:32:02;;;;;;;28.97;15.57;;;3.10;99.90;;;2.80;82.70;97887.47;5089132;28;20209;-66
2023/01/18 05:34:30;;;;;;;32.43;15.23;;;3.00;99.90;;;2.80;82.47;97884.91;5090982;28;20209;-65
2023/01/18 05:36:59;;;;;;;31.53;16.63;;;3.00;99.90;;;2.78;81.79;97886.63;5090974;28;20196;-63
2023/01/18 05:39:27;;;;;;;30.20;16.63;;;3.00;99.90;;;2.76;82.52;97869.72;5089573;28;20698;-64
2023/01/18 05:41:56;;;;;;;28.80;15.37;;;3.10;99.90;;;2.78;82.34;97861.19;5088150;28;20212;-63
2023/01/18 05:44:27;;;;;;;28.17;15.47;;;3.00;99.90;;;2.78;82.95;97856.13;5086037;28;20201;-64
2023/01/18 05:46:58;;;;;;;28.93;14.53;;;3.00;99.90;;;2.76;82.51;97845.16;5082398;28;20556;-65
2023/01/18 05:49:26;;;;;;;29.97;15.03;;;3.00;99.90;;;2.75;81.95;97843.44;5086358;28;20212;-66
2023/01/18 05:51:55;;;;;;;27.73;15.03;;;3.10;99.90;;;2.74;83.08;97839.22;5083518;28;20200;-63
2023/01/18 05:54:23;;;;;;;28.87;15.20;;;3.00;99.90;;;2.73;81.96;97832.47;5089750;28;20200;-66
2023/01/18 05:56:52;;;;;;;28.00;14.57;;;3.00;99.90;;;2.72;82.50;97819.78;5089912;28;20204;-65
2023/01/18 05:59:20;;;;;;;28.20;13.33;;;3.00;99.90;;;2.69;82.30;97812.19;5092326;28;20230;-66
2023/01/18 06:01:48;;;;;;;23.10;12.80;;;2.90;99.90;;;2.62;82.77;97797.06;5083347;28;20282;-65
2023/01/18 06:04:18;;;;;;;25.17;13.30;;;2.90;99.90;;;2.63;82.64;97796.19;5083667;28;20208;-65
2023/01/18 06:06:47;;;;;;;24.03;12.83;;;2.90;99.90;;;2.60;83.18;97790.31;5082030;28;20197;-66
2023/01/18 06:09:15;;;;;;;23.47;11.80;;;2.90;99.90;;;2.57;83.29;97783.56;5091690;28;20315;-63
2023/01/18 06:11:45;;;;;;;22.83;11.43;;;2.90;99.90;;;2.58;82.77;97784.44;5083667;28;20541;-65
2023/01/18 06:14:13;;;;;;;22.87;11.83;;;2.90;99.90;;;2.56;83.50;97774.25;5082221;28;20492;-63
2023/01/18 06:16:42;;;;;;;19.87;11.80;;;2.80;99.90;;;2.54;83.48;97778.53;5083866;28;20200;-65
2023/01/18 06:19:10;;;;;;;20.93;11.07;;;2.80;99.90;;;2.53;83.86;97778.56;5083692;28;20753;-62
2023/01/18 06:21:40;;;;;;;20.90;10.50;;;2.80;99.90;;;2.51;83.91;97770.97;5082357;28;20201;-64
2023/01/18 06:24:09;;;;;;;18.97;10.53;;;2.80;99.90;;;2.51;83.62;97775.22;5090029;28;20213;-67
2023/01/18 06:26:37;;;;;;;19.57;10.70;;;2.80;99.90;;;2.51;84.00;97770.13;5090926;28;20247;-62
2023/01/18 06:29:06;;;;;;;17.70;9.93;;;2.80;99.90;;;2.52;83.44;97766.72;5085270;28;20673;-66
2023/01/18 06:31:34;;;;;;;17.70;9.77;;;2.80;99.90;;;2.49;83.72;97759.97;5083024;28;20269;-64
2023/01/18 06:34:08;;;;;;;16.30;9.13;;;2.80;99.90;;;2.48;83.60;97739.69;5083653;28;20579;-66
2023/01/18 06:36:37;;;;;;;19.77;10.20;;;2.80;99.90;;;2.47;84.04;97718.50;5072724;28;20641;-65
2023/01/18 06:39:07;;;;;;;18.33;10.20;;;2.80;99.90;;;2.46;83.65;97713.44;5089341;28;20300;-67
2023/01/18 06:41:38;;;;;;;16.10;9.33;;;2.70;99.90;;;2.44;83.95;97710.09;5086899;28;20197;-65
2023/01/18 06:44:06;;;;;;;14.70;9.27;;;2.70;99.90;;;2.44;83.96;97712.63;5082964;28;20718;-66
2023/01/18 06:46:35;;;;;;;20.37;10.87;;;2.70;99.90;;;2.46;83.60;97710.88;5091554;28;20224;-65
2023/01/18 06:49:03;;;;;;;17.50;9.83;;;2.80;99.90;;;2.46;83.60;97731.22;5091204;28;20224;-65
2023/01/18 06:51:31;;;;;;;19.30;9.97;;;2.80;99.90;;;2.47;84.49;97755.75;5091328;28;20265;-66
2023/01/18 06:54:00;;;;;;;18.73;10.27;;;2.80;99.90;;;2.48;84.39;97775.25;5087574;28;20238;-68
2023/01/18 06:56:30;;;;;;;16.27;10.83;;;2.80;99.90;;;2.50;83.76;97758.25;5091071;28;20610;-66
2023/01/18 06:58:59;;;;;;;18.33;11.40;;;2.80;99.90;;;2.49;84.43;97754.06;5085073;28;20259;-65
2023/01/18 07:01:28;;;;;;;18.47;9.87;;;2.80;99.90;;;2.54;84.23;97739.56;5084037;28;20236;-66
2023/01/18 07:03:57;;;;;;;17.13;10.10;;;2.80;99.90;;;2.57;83.40;97734.41;5085958;28;20207;-65
2023/01/18 07:06:25;;;;;;;15.93;9.10;;;2.80;99.90;;;2.57;84.45;97730.19;5090483;28;20676;-66
2023/01/18 07:08:54;;;;;;;16.80;9.37;;;2.90;99.90;;;2.56;84.13;97723.41;5091410;28;20301;-64
2023/01/18 07:11:23;;;;;;;19.57;10.00;;;2.80;99.90;;;2.56;83.66;97728.50;5089346;28;20920;-64
2023/01/18 07:13:53;;;;;;;15.67;9.50;;;2.80;99.90;;;2.56;83.78;97743.75;5083554;28;20204;-65
2023/01/18 07:16:21;;;;;;;14.70;8.53;;;2.90;99.90;;;2.56;83.78;97737.84;5089637;28;20266;-64
2023/01/18 07:18:50;;;;;;;15.53;9.20;;;2.90;99.90;;;2.57;83.24;97747.13;5091608;28;20228;-65
2023/01/18 07:21:21;;;;;;;15.10;8.50;;;2.80;99.90;;;2.56;84.33;97748.84;5091713;28;20390;-64
2023/01/18 07:23:51;;;;;;;13.77;9.17;;;2.90;99.90;;;2.57;83.42;97745.44;5089486;28;20205;-65
2023/01/18 07:26:19;;;;;;;15.07;8.90;;;2.90;99.90;;;2.60;83.60;97758.09;5091253;28;20213;-67
2023/01/18 07:28:48;;;;;;;14.97;8.80;;;2.90;99.90;;;2.59;84.01;97753.03;5092552;28;20278;-66
2023/01/18 07:31:19;;;;;;;16.40;8.20;;;2.90;99.90;;;2.63;83.52;97764.84;5071751;28;20201;-64
2023/01/18 07:33:47;;;;;;;16.50;9.00;;;2.90;99.90;;;2.65;84.17;97760.53;5089278;28;20196;-64
2023/01/18 07:36:16;;;;;;;14.73;8.20;;;2.90;99.90;;;2.68;83.20;97747.78;5083806;28;20204;-66
2023/01/18 07:38:45;;;;;;;13.10;9.13;;;3.00;99.90;;;2.70;83.42;97751.16;5085948;28;20540;-64
2023/01/18 07:41:16;;;;;;;17.17;7.77;;;3.00;99.90;;;2.70;83.21;97740.16;5086898;28;20212;-63
2023/01/18 07:43:45;;;;;;;12.97;7.90;;;3.10;99.90;;;2.71;83.20;97746.91;5091271;28;20208;-66
2023/01/18 07:46:18;;;;;;;14.23;7.40;;;3.00;99.90;;;2.68;83.23;97737.63;5077027;28;20669;-63
2023/01/18 07:48:47;;;;;;;10.97;7.07;;;3.00;99.90;;;2.72;83.25;97746.88;5087458;28;20710;-66
2023/01/18 07:51:17;;;;;;;15.10;8.10;;;3.00;99.90;;;2.73;83.37;97743.50;5090367;28;20240;-66
2023/01/18 07:53:46;;;;;;;14.40;8.07;;;3.00;99.90;;;2.74;83.32;97736.69;5084713;28;20212;-65
2023/01/18 07:56:17;;;;;;;12.87;7.87;;;3.00;99.90;;;2.73;83.80;97740.09;5089150;28;20253;-64
2023/01/18 07:58:45;;;;;;;12.43;7.63;;;3.00;99.90;;;2.75;83.87;97746.00;5090540;28;20600;-65
2023/01/18 08:01:18;;;;;;;16.23;8.10;;;3.00;99.90;;;2.77;83.63;97747.66;5089965;28;20614;-64
2023/01/18 08:03:49;;;;;;;11.03;6.60;;;3.00;99.90;;;2.77;83.82;97734.94;5083344;28;20193;-66
2023/01/18 08:06:23;;;;;;;10.93;6.67;;;3.00;99.90;;;2.78;83.08;97731.50;5088880;28;20200;-64
2023/01/18 08:08:53;;;;;;;10.63;6.53;;;3.10;99.90;;;2.78;83.22;97733.22;5083964;28;20207;-64
2023/01/18 08:11:22;;;;;;;9.77;6.43;;;3.00;99.90;;;2.79;83.48;97724.72;5077077;28;20205;-65
2023/01/18 08:13:51;;;;;;;10.67;6.60;;;3.10;99.90;;;2.79;83.80;97717.09;5082691;28;20270;-64
2023/01/18 08:16:21;;;;;;;10.37;6.37;;;3.10;99.90;;;2.79;83.76;97710.31;5091590;28;20209;-66
2023/01/18 08:18:50;;;;;;;11.90;6.97;;;3.10;99.90;;;2.79;83.95;97720.47;5089869;28;20294;-65
2023/01/18 08:21:19;;;;;;;9.50;6.27;;;3.10;99.90;;;2.82;84.21;97729.75;5094182;28;20262;-66
2023/01/18 08:23:49;;;;;;;11.13;7.10;;;3.10;99.90;;;2.84;83.56;97730.59;5093088;28;20212;-66
2023/01/18 08:26:18;;;;;;;10.80;5.97;;;3.10;99.90;;;2.86;84.23;97721.22;5075035;28;20213;-65
2023/01/18 08:28:46;;;;;;;9.93;6.37;;;3.10;99.90;;;2.89;83.71;97711.81;5091652;28;20255;-67
2023/01/18 08:31:18;;;;;;;8.60;5.37;;;3.10;99.90;;;2.89;83.78;97695.72;5089823;28;20290;-65
2023/01/18 08:33:49;;;;;;;7.37;5.20;;;3.20;99.90;;;2.92;83.31;97689.75;5093784;28;20204;-65
2023/01/18 08:36:21;;;;;;;7.63;4.87;;;3.20;99.90;;;2.90;83.67;97690.59;5088832;28;20291;-66
2023/01/18 08:38:51;;;;;;;8.60;5.23;;;3.20;99.90;;;2.90;83.48;97672.78;5084787;28;20193;-65
2023/01/18 08:41:20;;;;;;;6.53;4.70;;;3.20;99.90;;;2.94;83.46;97673.56;5092375;28;20219;-64
2023/01/18 08:43:51;;;;;;;8.60;4.80;;;3.20;99.90;;;2.92;84.06;97671.94;5089912;28;20235;-64
2023/01/18 08:46:19;;;;;;;7.77;5.23;;;3.20;99.90;;;2.90;84.09;97688.06;5092831;28;20759;-66
2023/01/18 08:48:51;;;;;;;10.07;5.47;;;3.20;99.90;;;2.92;83.90;97687.22;5092990;28;20225;-66
2023/01/18 08:51:21;;;;;;;8.17;5.13;;;3.20;99.90;;;2.90;83.51;97688.06;5090435;28;20205;-65
2023/01/18 08:53:52;;;;;;;5.40;4.10;;;3.20;99.90;;;2.92;84.26;97697.38;5092246;28;20625;-66
2023/01/18 08:56:21;;;;;;;7.97;4.47;;;3.20;99.90;;;2.96;83.66;97699.00;5092042;28;20205;-66
2023/01/18 08:58:50;;;;;;;7.07;4.70;;;3.20;99.90;;;2.98;83.87;97707.41;5084202;28;20638;-65
2023/01/18 09:01:21;;;;;;;9.03;4.93;;;3.30;99.90;;;3.01;83.67;97704.81;5083835;28;20316;-65
2023/01/18 09:03:56;;;;;;;6.80;4.43;;;3.20;99.90;;;3.06;83.50;97718.31;5086904;28;20269;-69
2023/01/18 09:06:30;;;;;;;6.20;4.43;;;3.30;99.90;;;3.07;83.93;97709.81;5083507;28;20201;-66
2023/01/18 09:08:59;;;;;;;7.00;4.57;;;3.30;99.90;;;3.05;83.61;97719.16;5088089;28;20211;-64
2023/01/18 09:11:27;;;;;;;5.50;4.27;;;3.30;99.90;;;3.07;82.92;97714.91;5084744;28;20614;-67
2023/01/18 09:13:58;;;;;;;7.33;4.43;;;3.30;99.90;;;3.04;83.59;97702.22;5090429;28;20209;-65
2023/01/18 09:16:29;;;;;;;6.70;4.73;;;3.30;99.90;;;3.06;83.25;97701.34;5088074;28;20200;-67
2023/01/18 09:19:00;;;;;;;8.40;4.80;;;3.30;99.90;;;3.06;83.55;97695.41;5078610;28;20681;-64
2023/01/18 09:21:29;;;;;;;6.47;4.43;;;3.30;99.90;;;3.09;83.70;97692.78;5090768;28;20204;-67
2023/01/18 09:23:58;;;;;;;6.53;4.33;;;3.30;99.90;;;3.10;83.90;97691.94;5085254;28;20205;-66
2023/01/18 09:26:29;;;;;;;6.53;4.03;;;3.30;99.90;;;3.09;83.61;97682.59;5090661;28;20236;-65
2023/01/18 09:28:57;;;;;;;6.93;4.27;;;3.30;99.90;;;3.09;83.86;97674.97;5088945;28;20203;-66
2023/01/18 09:31:29;;;;;;;7.23;4.13;;;3.40;99.90;;;3.10;82.93;97674.13;5089422;28;20216;-66
2023/01/18 09:33:59;;;;;;;5.27;4.10;;;3.40;99.90;;;3.12;83.13;97667.28;5090956;28;20232;-67
2023/01/18 09:36:46;;;;;;;7.73;5.50;;;3.40;99.90;;;3.14;83.56;97651.13;5085585;28;20602;-67
2023/01/18 09:39:15;;;;;;;4.03;3.63;;;3.50;99.90;;;3.15;83.60;97637.53;5088445;28;20217;-66
2023/01/18 09:41:49;;;;;;;5.90;3.97;;;3.40;99.90;;;3.20;83.32;97632.34;5085402;28;20204;-65
2023/01/18 09:44:25;;;;;;;6.30;3.87;;;3.50;99.90;;;3.20;82.85;97632.34;5090574;28;20242;-65
2023/01/18 09:46:58;;;;;;;6.17;4.30;;;3.50;99.90;;;3.21;83.40;97640.84;5090325;28;20192;-65
2023/01/18 09:49:37;;;;;;;6.57;3.77;;;3.50;99.90;;;3.20;83.48;97634.06;5090949;28;20216;-68
2023/01/18 09:52:24;;;;;;;4.60;3.57;;;3.40;99.90;;;3.21;83.52;97623.03;5086576;28;20200;-66
2023/01/18 09:55:02;;;;;;;5.33;4.13;;;3.40;99.90;;;3.18;83.24;97616.28;5087643;28;20212;-66
2023/01/18 09:57:48;;;;;;;5.67;4.00;;;3.50;99.90;;;3.15;83.18;97627.34;5091501;28;20231;-65
2023/01/18 10:00:22;;;;;;;4.97;3.93;;;3.40;99.90;;;3.14;83.35;97637.59;5091441;28;20758;-65
2023/01/18 10:02:54;;;;;;;5.50;3.47;;;3.40;99.90;;;3.09;83.38;97636.81;5085647;28;20691;-64
2023/01/18 10:05:29;;;;;;;5.60;3.40;;;3.30;99.90;;;3.03;83.72;97637.78;5084709;28;20197;-66
2023/01/18 10:08:06;;;;;;;4.77;3.50;;;3.30;99.90;;;2.99;82.88;97637.91;5082336;28;20212;-67
2023/01/18 10:10:39;;;;;;;4.93;3.67;;;3.30;99.90;;;2.94;83.47;97637.97;5088073;28;20208;-64
2023/01/18 10:13:42;;;;;;;3.60;3.10;;;3.30;99.90;;;2.90;83.15;97621.94;5089382;28;20619;-66
2023/01/18 10:16:15;;;;;;;3.63;3.20;;;3.20;99.90;;;2.88;84.00;97626.22;5078405;28;20625;-65
2023/01/18 10:18:47;;;;;;;5.23;3.37;;;3.20;99.90;;;2.88;84.57;97631.31;5088055;28;20279;-65
2023/01/18 10:21:29;;;;;;;4.03;2.90;;;3.20;99.90;;;2.86;83.94;97635.56;5083742;28;20307;-65
2023/01/18 10:24:22;;;;;;;4.07;3.47;;;3.20;99.90;;;2.87;83.99;97637.28;5087183;28;20254;-64
2023/01/18 10:26:58;;;;;;;4.00;3.03;;;3.20;99.90;;;2.87;84.23;97633.88;5084850;28;20201;-65
2023/01/18 10:29:45;;;;;;;3.70;3.33;;;3.20;99.90;;;2.90;84.59;97642.28;5085684;28;20229;-66
2023/01/18 10:32:18;;;;;;;4.30;3.57;;;3.20;99.90;;;2.90;84.19;97634.66;5086851;28;20262;-65
2023/01/18 10:34:50;;;;;;;5.20;3.13;;;3.20;99.90;;;2.91;83.79;97627.88;5074487;28;20213;-63
2023/01/18 10:37:37;;;;;;;4.00;3.10;;;3.20;99.90;;;2.90;83.83;97627.00;5088316;28;20212;-65
2023/01/18 10:40:09;;;;;;;4.07;3.10;;;3.20;99.90;;;2.93;84.18;97608.31;5085916;28;20201;-66
2023/01/18 10:42:44;;;;;;;4.67;3.37;;;3.20;99.90;;;2.93;84.37;97597.31;5079396;28;20288;-65
2023/01/18 10:45:18;;;;;;;4.37;3.70;;;3.20;99.90;;;2.87;84.11;97583.88;5089462;28;20234;-64
2023/01/18 10:47:48;;;;;;;3.77;3.30;;;3.20;99.90;;;2.92;83.94;97605.81;5087086;28;20191;-65
2023/01/18 10:50:21;;;;;;;5.20;3.50;;;3.20;99.90;;;2.91;84.12;97612.63;5083061;28;20278;-65
2023/01/18 10:52:51;;;;;;;5.37;4.40;;;3.20;99.90;;;2.93;84.70;97615.13;5086095;28;20205;-65
2023/01/18 10:55:20;;;;;;;6.33;4.50;;;3.20;99.90;;;2.94;84.38;97606.59;5082296;28;20204;-65
2023/01/18 10:57:53;;;;;;;7.70;4.50;;;3.20;99.90;;;2.94;84.24;97591.34;5080593;28;20277;-64
2023/01/18 11:00:29;;;;;;;5.37;3.90;;;3.20;99.90;;;2.96;84.53;97593.00;5085591;28;20220;-65
2023/01/18 11:02:59;;;;;;;5.27;4.13;;;3.20;99.90;;;2.98;84.53;97580.25;5090408;28;20610;-65
2023/01/18 11:05:32;;;;;;;5.03;3.63;;;3.30;99.90;;;2.99;84.60;97574.31;5088053;28;20200;-66
2023/01/18 11:08:22;;;;;;;4.27;3.70;;;3.30;99.90;;;3.01;84.35;97580.19;5089714;28;20204;-66
2023/01/18 11:11:00;;;;;;;6.27;3.67;;;3.30;99.90;;;3.01;83.90;97572.56;5087381;28;20217;-66
2023/01/18 11:13:34;;;;;;;4.73;3.67;;;3.30;99.90;;;3.02;84.13;97574.22;5088288;28;20706;-67